Time;durP1;ratioP1;P1;durP2;ratioP2;P2;SDS_P1;SDS_P2;PMS_P1;PMS_P2;Temp;Humidity;BMP_temperature;BMP_pressure;BME280_temperature;BME280_humidity;BME280_pressure;Samples;Min_cycle;Max_cycle;Signal;HPM_P1;HPM_P2
2023/01/25 00:00:48;;;;;;;39.53;20.73;;;;;;;-0.03;100.00;97805.41;4976956;28;20037;-83
2023/01/25 00:03:13;;;;;;;39.07;20.13;;;;;;;0.05;100.00;97800.78;4979480;28;20622;-83
2023/01/25 00:05:39;;;;;;;38.77;19.53;;;;;;;0.11;100.00;97795.41;4964037;28;20454;-83
2023/01/25 00:08:07;;;;;;;37.63;20.73;;;;;;;0.10;100.00;97798.91;5002681;28;20435;-83
2023/01/25 00:10:36;;;;;;;39.20;18.93;;;;;;;-0.01;100.00;97794.09;4968820;28;20041;-84
2023/01/25 00:13:01;;;;;;;37.53;20.10;;;;;;;0.04;100.00;97793.09;4963441;28;20469;-84
2023/01/25 00:15:29;;;;;;;37.07;19.13;;;;;;;0.03;100.00;97793.97;4978822;28;20468;-84
2023/01/25 00:17:54;;;;;;;40.67;19.27;;;;;;;-0.02;100.00;97794.16;4995357;28;20038;-83
2023/01/25 00:20:37;;;;;;;34.27;19.63;;;;;;;0.00;100.00;97787.22;4977338;28;20460;-83
2023/01/25 00:23:03;;;;;;;36.10;18.90;;;;;;;0.03;100.00;97796.56;4988312;28;20034;-83
2023/01/25 00:25:32;;;;;;;42.13;20.10;;;;;;;0.03;100.00;97792.25;4964909;28;20659;-83
2023/01/25 00:27:57;;;;;;;39.00;20.10;;;;;;;-0.08;100.00;97794.38;4975537;28;20089;-83
2023/01/25 00:30:25;;;;;;;38.70;17.73;;;;;;;-0.03;100.00;97795.06;4979851;28;20555;-83
2023/01/25 00:33:10;;;;;;;39.17;19.67;;;;;;;-0.03;100.00;97789.91;4954228;28;20029;-82
2023/01/25 00:35:37;;;;;;;37.37;20.33;;;;;;;-0.11;100.00;97797.06;4973879;28;20401;-83
2023/01/25 00:38:23;;;;;;;38.17;18.93;;;;;;;-0.12;100.00;97793.66;4968991;28;20525;-84
2023/01/25 00:40:51;;;;;;;38.40;19.10;;;;;;;-0.09;100.00;97792.69;4972981;28;20515;-83
2023/01/25 00:43:22;;;;;;;41.87;19.10;;;;;;;-0.04;100.00;97796.78;4996765;28;20473;-83
2023/01/25 00:45:48;;;;;;;40.63;19.33;;;;;;;-0.07;100.00;97783.13;4984708;28;20042;-84
2023/01/25 00:48:14;;;;;;;43.63;21.23;;;;;;;-0.08;100.00;97789.22;4963859;28;20477;-84
2023/01/25 00:50:40;;;;;;;39.93;20.83;;;;;;;-0.08;100.00;97789.22;4969330;28;20033;-83
2023/01/25 00:53:19;;;;;;;41.37;20.73;;;;;;;-0.06;100.00;97787.41;4962133;28;20030;-83
2023/01/25 00:55:52;;;;;;;41.47;21.60;;;;;;;-0.05;100.00;97784.75;4990092;28;20034;-82
2023/01/25 00:58:19;;;;;;;30.08;15.10;;;;;;;-0.09;100.00;97778.03;4983540;28;20476;-82
2023/01/25 01:00:45;;;;;;;42.23;18.37;;;;;;;-0.09;100.00;97780.59;4973906;28;20030;-82
2023/01/25 01:03:11;;;;;;;38.90;17.90;;;;;;;0.03;100.00;97776.72;4973460;28;20997;-83
2023/01/25 01:05:38;;;;;;;37.63;17.70;;;;;;;0.03;100.00;97775.88;4959509;28;20041;-84
2023/01/25 01:08:04;;;;;;;42.60;20.80;;;;;;;-0.23;100.00;97782.84;4979645;28;20109;-84
2023/01/25 01:10:30;;;;;;;43.13;19.17;;;;;;;-0.20;100.00;97787.06;4981542;28;20561;-83
2023/01/25 01:12:55;;;;;;;36.00;18.90;;;;;;;-0.18;100.00;97783.53;4974812;28;20030;-83
2023/01/25 01:15:21;;;;;;;39.30;18.40;;;;;;;-0.12;100.00;97787.63;4960264;28;20022;-83
2023/01/25 01:17:47;;;;;;;44.87;21.47;;;;;;;-0.24;100.00;97788.91;4982222;28;20660;-83
2023/01/25 01:20:12;;;;;;;47.90;22.03;;;;;;;-0.25;100.00;97787.22;4955608;28;20035;-83
2023/01/25 01:22:39;;;;;;;39.87;20.03;;;;;;;-0.23;100.00;97785.44;4958887;28;20394;-83
2023/01/25 01:25:05;;;;;;;42.87;21.47;;;;;;;-0.29;100.00;97776.16;4960151;28;20113;-83
2023/01/25 01:27:34;;;;;;;39.53;19.67;;;;;;;-0.27;100.00;97787.28;4990263;28;21248;-83
2023/01/25 01:30:00;;;;;;;39.40;18.47;;;;;;;-0.29;100.00;97786.50;4968887;28;20481;-83
2023/01/25 01:32:26;;;;;;;44.93;21.57;;;;;;;-0.22;100.00;97783.69;4963366;28;20540;-83
2023/01/25 01:34:52;;;;;;;40.00;20.23;;;;;;;-0.34;100.00;97783.22;4960829;28;20034;-84
2023/01/25 01:37:20;;;;;;;44.10;21.37;;;;;;;-0.30;100.00;97779.66;4973210;28;20826;-83
2023/01/25 01:39:46;;;;;;;43.87;22.97;;;;;;;-0.29;100.00;97791.66;4982815;28;20148;-83
2023/01/25 01:42:22;;;;;;;46.53;21.53;;;;;;;-0.20;100.00;97781.88;4960099;28;21502;-83
2023/01/25 01:44:53;;;;;;;41.33;19.07;;;;;;;-0.31;100.00;97782.28;4975024;28;20045;-84
2023/01/25 01:47:39;;;;;;;31.48;15.52;;;;;;;-0.32;100.00;97786.59;4981009;28;20476;-83
2023/01/25 01:50:18;;;;;;;41.27;20.37;;;;;;;-0.25;100.00;97775.13;4959149;28;20050;-83
2023/01/25 01:53:06;;;;;;;41.03;20.83;;;;;;;-0.26;100.00;97776.03;4993515;28;20465;-83
2023/01/25 01:55:32;;;;;;;39.20;19.20;;;;;;;-0.16;100.00;97775.72;4975090;28;20492;-83
2023/01/25 01:58:02;;;;;;;42.53;20.77;;;;;;;-0.25;100.00;97782.91;4982398;28;20469;-85
2023/01/25 02:00:37;;;;;;;45.20;20.77;;;;;;;-0.20;100.00;97775.00;4975884;28;20072;-83
2023/01/25 02:03:03;;;;;;;38.70;18.17;;;;;;;-0.18;100.00;97780.09;4958862;28;20457;-84
2023/01/25 02:05:32;;;;;;;40.73;19.73;;;;;;;-0.16;100.00;97776.56;4962832;28;20481;-83
2023/01/25 02:07:59;;;;;;;40.77;20.00;;;;;;;-0.27;100.00;97774.38;4982363;28;20494;-83
2023/01/25 02:10:27;;;;;;;36.57;18.80;;;;;;;-0.27;100.00;97768.31;4994295;28;20497;-83
2023/01/25 02:13:02;;;;;;;41.00;18.83;;;;;;;-0.30;100.00;97774.47;4990092;28;20996;-83
2023/01/25 02:15:39;;;;;;;39.40;18.63;;;;;;;-0.24;100.00;97775.97;4973874;28;20478;-83
2023/01/25 02:18:11;;;;;;;34.00;16.50;;;;;;;-0.27;100.00;97768.31;4982134;28;20453;-84
2023/01/25 02:20:43;;;;;;;31.47;16.37;;;;;;;-0.30;100.00;97781.41;4975063;28;21027;-83
2023/01/25 02:23:35;;;;;;;32.87;17.00;;;;;;;-0.26;100.00;97765.72;4981484;28;20438;-83
2023/01/25 02:26:05;;;;;;;37.70;16.73;;;;;;;-0.29;100.00;97768.41;4962546;28;21102;-84
2023/01/25 02:28:52;;;;;;;35.17;16.87;;;;;;;-0.31;100.00;97780.53;4955041;28;20556;-83
2023/01/25 02:31:22;;;;;;;30.30;15.63;;;;;;;-0.34;100.00;97780.63;4970959;28;21012;-83
2023/01/25 02:33:48;;;;;;;32.43;14.80;;;;;;;-0.31;100.00;97780.53;4971822;28;20549;-83
2023/01/25 02:36:19;;;;;;;34.57;16.80;;;;;;;-0.29;100.00;97770.16;4962382;28;20038;-82
2023/01/25 02:38:53;;;;;;;33.23;14.97;;;;;;;-0.30;100.00;97766.72;4979981;28;20117;-82
2023/01/25 02:41:37;;;;;;;29.30;14.40;;;;;;;-0.37;100.00;97767.84;4974453;28;20462;-82
2023/01/25 02:44:13;;;;;;;32.25;14.60;;;;;;;-0.36;100.00;97761.75;4969518;28;20493;-83
2023/01/25 02:46:42;;;;;;;30.37;15.10;;;;;;;-0.41;100.00;97761.06;4991873;28;20042;-83
2023/01/25 02:49:10;;;;;;;30.20;14.70;;;;;;;-0.27;100.00;97756.28;4955573;28;20477;-84
2023/01/25 02:51:39;;;;;;;30.00;14.43;;;;;;;-0.29;100.00;97755.47;4976600;28;20556;-83
2023/01/25 02:54:10;;;;;;;28.50;14.63;;;;;;;-0.24;100.00;97753.56;4979500;28;20512;-83
2023/01/25 02:56:39;;;;;;;27.30;14.73;;;;;;;-0.27;100.00;97748.53;4972558;28;20476;-83
2023/01/25 02:59:06;;;;;;;28.10;13.20;;;;;;;-0.28;100.00;97745.97;4958289;28;20476;-83
2023/01/25 03:01:35;;;;;;;25.77;13.30;;;;;;;-0.27;100.00;97748.53;4958365;28;20461;-83
2023/01/25 03:04:01;;;;;;;30.80;14.23;;;;;;;-0.30;100.00;97751.22;4976069;28;20515;-84
2023/01/25 03:06:27;;;;;;;29.07;14.47;;;;;;;-0.33;100.00;97748.72;4975833;28;20461;-83
2023/01/25 03:08:56;;;;;;;25.80;11.43;;;;;;;-0.42;100.00;97743.88;4967208;28;20533;-83
2023/01/25 03:11:22;;;;;;;26.20;13.33;;;;;;;-0.42;100.00;97749.06;4975741;28;20121;-83
2023/01/25 03:13:48;;;;;;;24.90;12.47;;;;;;;-0.41;100.00;97739.56;4961497;28;20469;-83
2023/01/25 03:16:14;;;;;;;24.23;12.43;;;;;;;-0.36;100.00;97737.66;4979664;28;20516;-83
2023/01/25 03:18:45;;;;;;;27.17;12.97;;;;;;;-0.36;100.00;97745.41;4996387;28;20026;-83
2023/01/25 03:21:20;;;;;;;25.67;13.27;;;;;;;-0.38;100.00;97742.03;4983499;28;20468;-82
2023/01/25 03:23:59;;;;;;;28.17;12.60;;;;;;;-0.35;100.00;97734.16;4986183;28;20560;-82
2023/01/25 03:27:09;;;;;;;24.40;12.97;;;;;;;-0.26;100.00;97736.44;4980325;28;20457;-82
2023/01/25 03:29:19;;;;;;;26.40;12.40;;;;;;;-0.33;100.00;97728.06;4971530;28;20940;-82
2023/01/25 03:31:47;;;;;;;31.67;14.67;;;;;;;-0.37;100.00;97729.06;4961656;28;20473;-82
2023/01/25 03:34:14;;;;;;;27.53;14.80;;;;;;;-0.51;100.00;97728.69;4960223;28;20461;-82
2023/01/25 03:36:41;;;;;;;29.73;13.80;;;;;;;-0.55;100.00;97720.22;4968148;28;20457;-82
2023/01/25 03:39:08;;;;;;;27.63;13.07;;;;;;;-0.45;100.00;97718.16;4999459;28;20472;-82
2023/01/25 03:41:41;;;;;;;30.47;13.83;;;;;;;-0.57;100.00;97719.44;4968625;28;20531;-82
2023/01/25 03:44:18;;;;;;;30.77;14.13;;;;;;;-0.50;100.00;97725.25;4976737;28;20837;-82
2023/01/25 03:46:45;;;;;;;29.90;13.17;;;;;;;-0.50;100.00;97714.91;4962426;28;20453;-82
2023/01/25 03:49:11;;;;;;;29.30;15.40;;;;;;;-0.58;100.00;97722.06;4977426;28;21003;-82
2023/01/25 03:51:37;;;;;;;27.50;13.43;;;;;;;-0.45;100.00;97723.31;4980708;28;20124;-82
2023/01/25 03:54:03;;;;;;;24.43;12.63;;;;;;;-0.43;100.00;97721.53;4976338;28;20037;-81
2023/01/25 03:56:36;;;;;;;24.50;13.27;;;;;;;-0.33;100.00;97714.28;4991710;28;20037;-82
2023/01/25 03:59:11;;;;;;;21.27;11.33;;;;;;;-0.31;100.00;97715.91;4963036;28;20480;-82
2023/01/25 04:01:48;;;;;;;21.53;12.50;;;;;;;-0.36;100.00;97717.81;4985683;28;20492;-82
2023/01/25 04:04:19;;;;;;;20.93;11.23;;;;;;;-0.25;100.00;97709.66;4970727;28;20460;-82
2023/01/25 04:06:47;;;;;;;23.33;11.10;;;;;;;-0.25;100.00;97709.66;4994923;28;20492;-82
2023/01/25 04:09:13;;;;;;;21.07;11.33;;;;;;;-0.34;100.00;97710.00;4991569;28;20042;-82
2023/01/25 04:11:49;;;;;;;20.70;10.90;;;;;;;-0.40;100.00;97702.47;4975703;28;20039;-82
2023/01/25 04:14:21;;;;;;;22.97;12.10;;;;;;;-0.31;100.00;97708.16;4957688;28;20485;-82
2023/01/25 04:16:56;;;;;;;21.63;11.33;;;;;;;-0.47;100.00;97709.59;4975665;28;21086;-82
2023/01/25 04:19:25;;;;;;;17.90;9.73;;;;;;;-0.46;100.00;97705.28;4975239;28;20497;-82
2023/01/25 04:21:53;;;;;;;19.33;9.77;;;;;;;-0.45;100.00;97694.88;4990670;28;20476;-82
2023/01/25 04:24:19;;;;;;;19.17;10.77;;;;;;;-0.49;100.00;97698.50;4976319;28;20461;-82
2023/01/25 04:26:44;;;;;;;19.87;11.47;;;;;;;-0.49;100.00;97693.31;4985378;28;20033;-82
2023/01/25 04:29:11;;;;;;;20.37;11.33;;;;;;;-0.45;100.00;97696.63;4958116;28;20035;-83
2023/01/25 04:31:48;;;;;;;22.90;11.47;;;;;;;-0.47;100.00;97694.09;4984349;28;20751;-82
2023/01/25 04:34:14;;;;;;;22.00;11.73;;;;;;;-0.45;100.00;97692.31;4965919;28;20469;-82
2023/01/25 04:36:40;;;;;;;21.17;10.77;;;;;;;-0.48;100.00;97689.81;4966339;28;20462;-81
2023/01/25 04:39:06;;;;;;;22.60;12.50;;;;;;;-0.46;100.00;97693.22;4974363;28;20081;-82
2023/01/25 04:41:34;;;;;;;22.57;12.47;;;;;;;-0.44;100.00;97682.81;4970497;28;20543;-82
2023/01/25 04:44:01;;;;;;;23.90;11.53;;;;;;;-0.43;100.00;97680.19;4964373;28;21028;-82
2023/01/25 04:46:36;;;;;;;21.70;11.40;;;;;;;-0.49;100.00;97675.22;4983174;28;20033;-82
2023/01/25 04:49:03;;;;;;;21.60;12.83;;;;;;;-0.59;100.00;97677.31;4973998;28;21035;-82
2023/01/25 04:51:32;;;;;;;24.33;12.40;;;;;;;-0.63;100.00;97682.66;4976366;28;20454;-82
2023/01/25 04:53:58;;;;;;;23.70;12.47;;;;;;;-0.54;100.00;97670.25;4976174;28;20497;-82
2023/01/25 04:56:24;;;;;;;22.03;12.63;;;;;;;-0.58;100.00;97667.81;4956498;28;20473;-82
2023/01/25 04:58:53;;;;;;;22.13;11.93;;;;;;;-0.51;100.00;97667.53;4976557;28;20038;-82
2023/01/25 05:01:19;;;;;;;22.30;12.03;;;;;;;-0.49;100.00;97663.16;4973729;28;21245;-82
2023/01/25 05:03:46;;;;;;;23.10;12.20;;;;;;;-0.40;100.00;97667.16;4977008;28;20034;-82
2023/01/25 05:06:23;;;;;;;29.37;13.90;;;;;;;-0.37;100.00;97661.88;4994666;28;20457;-82
2023/01/25 05:08:51;;;;;;;24.13;12.53;;;;;;;-0.31;100.00;97664.19;4954760;28;20814;-82
2023/01/25 05:11:23;;;;;;;29.40;13.90;;;;;;;-0.39;100.00;97668.00;4963887;28;20076;-82
2023/01/25 05:13:54;;;;;;;22.67;12.13;;;;;;;-0.36;100.00;97668.72;4973666;28;20536;-82
2023/01/25 05:16:31;;;;;;;24.30;13.17;;;;;;;-0.44;100.00;97667.31;4983106;28;20469;-82
2023/01/25 05:18:58;;;;;;;26.70;14.47;;;;;;;-0.42;100.00;97662.94;4977672;28;20481;-82
2023/01/25 05:21:58;;;;;;;26.13;13.77;;;;;;;-0.29;100.00;97665.00;4993686;28;20445;-82
2023/01/25 05:24:31;;;;;;;21.77;12.27;;;;;;;-0.29;100.00;97665.00;4984380;28;20918;-83
2023/01/25 05:27:04;;;;;;;27.43;13.67;;;;;;;-0.30;100.00;97663.31;4955027;28;20473;-82
2023/01/25 05:29:48;;;;;;;26.07;13.17;;;;;;;-0.34;100.00;97658.31;4975995;28;21210;-83
2023/01/25 05:32:17;;;;;;;26.53;13.67;;;;;;;-0.44;100.00;97664.72;4972536;28;20556;-82
2023/01/25 05:34:43;;;;;;;24.67;12.43;;;;;;;-0.49;100.00;97664.91;4958466;28;20469;-83
2023/01/25 05:37:12;;;;;;;25.83;13.40;;;;;;;-0.42;100.00;97666.34;4978306;28;20540;-81
2023/01/25 05:39:41;;;;;;;29.20;15.10;;;;;;;-0.41;100.00;97662.84;4981925;28;20520;-82
2023/01/25 05:42:12;;;;;;;26.80;13.63;;;;;;;-0.38;100.00;97665.34;4965115;28;20461;-82
2023/01/25 05:44:39;;;;;;;30.40;17.30;;;;;;;-0.44;100.00;97652.63;4973150;28;20034;-82
2023/01/25 05:47:08;;;;;;;28.13;14.37;;;;;;;-0.33;100.00;97647.09;4963465;28;20457;-82
2023/01/25 05:49:39;;;;;;;28.07;14.30;;;;;;;-0.34;100.00;97651.38;4982053;28;20441;-82
2023/01/25 05:52:14;;;;;;;29.92;16.15;;;;;;;-0.31;100.00;97653.84;4952982;28;20467;-82
2023/01/25 05:54:42;;;;;;;26.75;14.43;;;;;;;-0.21;100.00;97648.34;4955216;28;20125;-82
2023/01/25 05:57:09;;;;;;;31.23;15.27;;;;;;;-0.24;100.00;97650.13;4961665;28;20532;-82
2023/01/25 05:59:35;;;;;;;31.47;16.07;;;;;;;-0.31;100.00;97648.69;4977470;28;20450;-82
2023/01/25 06:02:06;;;;;;;26.27;16.27;;;;;;;-0.29;100.00;97636.56;4972799;28;20708;-82
2023/01/25 06:04:32;;;;;;;30.33;14.90;;;;;;;-0.34;100.00;97642.78;4976712;28;20477;-82
2023/01/25 06:06:57;;;;;;;27.33;14.80;;;;;;;-0.32;100.00;97635.84;4975856;28;20512;-83
2023/01/25 06:09:25;;;;;;;32.70;16.43;;;;;;;-0.26;100.00;97648.53;4980642;28;20820;-83
2023/01/25 06:11:51;;;;;;;31.37;15.77;;;;;;;-0.34;100.00;97643.63;4977042;28;20031;-83
2023/01/25 06:14:19;;;;;;;28.70;15.00;;;;;;;-0.40;100.00;97637.84;4975803;28;21308;-83
2023/01/25 06:17:03;;;;;;;30.43;16.07;;;;;;;-0.28;100.00;97635.66;4988197;28;20470;-83
2023/01/25 06:19:51;;;;;;;34.53;16.42;;;;;;;-0.23;100.00;97627.75;4979187;28;20405;-83
2023/01/25 06:22:41;;;;;;;26.03;14.53;;;;;;;-0.25;100.00;97629.53;4961782;28;20378;-83
2023/01/25 06:25:15;;;;;;;26.93;14.17;;;;;;;-0.32;100.00;97630.66;4973938;28;20469;-83
2023/01/25 06:27:41;;;;;;;28.13;16.13;;;;;;;-0.36;100.00;97629.09;4972947;28;20481;-83
2023/01/25 06:30:16;;;;;;;28.00;15.93;;;;;;;-0.35;100.00;97626.44;4970002;28;20818;-82
2023/01/25 06:32:42;;;;;;;27.83;15.27;;;;;;;-0.21;100.00;97618.16;4989514;28;20030;-83
2023/01/25 06:35:08;;;;;;;27.10;16.10;;;;;;;-0.30;100.00;97623.72;4975580;28;21076;-82
2023/01/25 06:37:45;;;;;;;29.13;15.67;;;;;;;-0.30;100.00;97629.72;4980943;28;20034;-83
2023/01/25 06:40:11;;;;;;;25.00;15.43;;;;;;;-0.22;100.00;97626.00;4984185;28;20453;-83
2023/01/25 06:42:42;;;;;;;30.20;15.80;;;;;;;-0.21;100.00;97619.91;4957273;28;20532;-83
2023/01/25 06:45:08;;;;;;;33.23;15.37;;;;;;;-0.12;100.00;97622.16;4968380;28;20499;-83
2023/01/25 06:47:39;;;;;;;29.93;16.97;;;;;;;-0.08;100.00;97628.88;4976548;28;20525;-83
2023/01/25 06:50:05;;;;;;;28.93;16.87;;;;;;;-0.12;100.00;97625.56;4971988;28;20569;-83
2023/01/25 06:52:35;;;;;;;33.60;19.37;;;;;;;-0.06;100.00;97627.09;4978162;28;20457;-83
2023/01/25 06:55:08;;;;;;;38.20;20.07;;;;;;;0.00;100.00;97621.69;4979284;28;20496;-81
2023/01/25 06:57:34;;;;;;;;;;;;;;;0.01;100.00;97625.09;4973197;28;20560;-81
2023/01/25 07:00:00;;;;;;;29.90;16.43;;;;;;;-0.15;100.00;97624.84;4975669;28;20013;-82
2023/01/25 07:02:35;;;;;;;31.93;16.90;;;;;;;-0.12;100.00;97620.41;4957532;28;20168;-81
2023/01/25 07:05:04;;;;;;;28.00;16.17;;;;;;;-0.17;100.00;97624.06;4961868;28;20061;-81
2023/01/25 07:07:30;;;;;;;30.63;16.43;;;;;;;-0.16;100.00;97623.19;4988982;28;20536;-82
2023/01/25 07:09:57;;;;;;;31.20;16.63;;;;;;;-0.20;100.00;97619.00;4955059;28;20870;-81
2023/01/25 07:12:24;;;;;;;27.60;16.00;;;;;;;-0.20;100.00;97622.47;4987501;28;20092;-81
2023/01/25 07:14:50;;;;;;;32.80;16.33;;;;;;;-0.26;100.00;97622.69;4968931;28;20868;-81
2023/01/25 07:17:16;;;;;;;31.90;17.40;;;;;;;-0.21;100.00;97617.31;4971256;28;20462;-81
2023/01/25 07:19:42;;;;;;;32.40;16.77;;;;;;;-0.23;100.00;97614.81;4988319;28;20037;-80
2023/01/25 07:22:07;;;;;;;31.57;17.03;;;;;;;-0.25;100.00;97608.84;4976420;28;20026;-81
2023/01/25 07:24:40;;;;;;;34.63;18.57;;;;;;;-0.21;100.00;97609.56;4972245;28;20502;-81
2023/01/25 07:27:06;;;;;;;33.30;17.53;;;;;;;-0.20;100.00;97608.66;4989602;28;20394;-82
2023/01/25 07:29:31;;;;;;;34.07;18.57;;;;;;;-0.17;100.00;97603.38;4969606;28;20469;-82
2023/01/25 07:31:58;;;;;;;26.83;15.93;;;;;;;-0.22;100.00;97600.97;4956335;28;20588;-81
2023/01/25 07:34:39;;;;;;;29.17;15.53;;;;;;;-0.16;100.00;97594.75;4974618;28;20488;-81
2023/01/25 07:37:04;;;;;;;27.60;14.53;;;;;;;-0.17;100.00;97591.28;4989391;28;20478;-82
2023/01/25 07:39:46;;;;;;;26.23;14.53;;;;;;;-0.20;100.00;97598.31;4998666;28;20433;-82
2023/01/25 07:42:13;;;;;;;29.67;16.60;;;;;;;-0.22;100.00;97605.31;4983996;28;20547;-82
2023/01/25 07:44:51;;;;;;;29.60;16.90;;;;;;;-0.26;100.00;97604.59;4972305;28;20461;-81
2023/01/25 07:47:17;;;;;;;42.00;24.10;;;;;;;-0.27;100.00;97602.88;4994734;28;20465;-82
2023/01/25 07:49:42;;;;;;;27.57;15.83;;;;;;;-0.30;100.00;97606.47;4965984;28;20468;-81
2023/01/25 07:52:08;;;;;;;28.77;17.87;;;;;;;-0.21;100.00;97600.06;4971625;28;20031;-81
2023/01/25 07:54:34;;;;;;;27.27;16.93;;;;;;;-0.19;100.00;97605.19;4969632;28;20576;-81
2023/01/25 07:56:59;;;;;;;28.47;16.47;;;;;;;-0.26;100.00;97602.00;4972816;28;20046;-81
2023/01/25 07:59:26;;;;;;;26.40;15.80;;;;;;;-0.35;100.00;97604.94;4966584;28;20100;-82
2023/01/25 08:01:52;;;;;;;23.97;14.50;;;;;;;-0.28;100.00;97601.22;4983300;28;20031;-82
2023/01/25 08:04:22;;;;;;;27.60;15.50;;;;;;;-0.28;100.00;97604.63;4958951;28;20900;-85
2023/01/25 08:06:49;;;;;;;29.40;15.00;;;;;;;-0.30;100.00;97597.88;4973841;28;20469;-84
2023/01/25 08:09:20;;;;;;;31.20;16.20;;;;;;;-0.22;100.00;97594.97;4962989;28;20477;-84
2023/01/25 08:11:52;;;;;;;28.77;17.20;;;;;;;-0.09;100.00;97596.19;4974695;28;20493;-83
2023/01/25 08:14:34;;;;;;;30.97;19.63;;;;;;;-0.08;100.00;97593.53;4978062;28;20476;-83
2023/01/25 08:17:01;;;;;;;28.73;15.63;;;;;;;-0.11;100.00;97592.81;4979632;28;20469;-83
2023/01/25 08:19:41;;;;;;;31.27;18.07;;;;;;;-0.26;100.00;97595.09;4962906;28;20446;-83
2023/01/25 08:22:12;;;;;;;31.67;17.93;;;;;;;-0.24;100.00;97593.28;4976535;28;20544;-84
2023/01/25 08:24:41;;;;;;;28.97;17.10;;;;;;;-0.17;100.00;97593.03;4983692;28;20477;-83
2023/01/25 08:27:07;;;;;;;31.30;16.43;;;;;;;-0.21;100.00;97596.66;4963211;28;21080;-83
2023/01/25 08:29:41;;;;;;;28.47;16.53;;;;;;;-0.18;100.00;97601.69;4973508;28;20568;-83
2023/01/25 08:32:16;;;;;;;28.17;16.67;;;;;;;-0.18;100.00;97602.53;4992403;28;20030;-83
2023/01/25 08:34:41;;;;;;;29.33;16.80;;;;;;;-0.20;100.00;97595.72;4962395;28;20892;-83
2023/01/25 08:37:11;;;;;;;28.13;16.67;;;;;;;-0.29;100.00;97600.38;4975818;28;20478;-82
2023/01/25 08:39:37;;;;;;;37.67;20.47;;;;;;;-0.21;100.00;97602.66;4973460;28;20038;-82
2023/01/25 08:42:02;;;;;;;34.57;19.20;;;;;;;-0.16;100.00;97598.16;4976073;28;21550;-81
2023/01/25 08:44:28;;;;;;;32.67;18.40;;;;;;;-0.08;100.00;97595.28;4966124;28;20038;-82
2023/01/25 08:46:58;;;;;;;34.50;18.50;;;;;;;-0.14;100.00;97611.00;4965835;28;20512;-83
2023/01/25 08:49:33;;;;;;;29.27;16.77;;;;;;;-0.19;100.00;97605.19;4989693;28;20034;-83
2023/01/25 08:51:58;;;;;;;28.27;16.87;;;;;;;-0.26;100.00;97602.84;4981770;28;21036;-82
2023/01/25 08:54:24;;;;;;;28.87;16.80;;;;;;;-0.18;100.00;97601.69;4982200;28;20472;-83
2023/01/25 08:56:57;;;;;;;29.67;17.33;;;;;;;-0.15;100.00;97591.25;4988425;28;20026;-83
2023/01/25 08:59:23;;;;;;;28.73;16.38;;;;;;;-0.41;100.00;97584.50;4962426;28;20206;-83
2023/01/25 09:01:52;;;;;;;33.70;18.97;;;;;;;-0.28;100.00;97586.53;4956232;28;20590;-83
2023/01/25 09:04:17;;;;;;;31.90;18.60;;;;;;;-0.22;100.00;97582.03;4990513;28;20209;-83
2023/01/25 09:06:47;;;;;;;30.47;17.17;;;;;;;-0.18;100.00;97588.78;4955869;28;20477;-83
2023/01/25 09:09:13;;;;;;;33.80;18.20;;;;;;;-0.27;100.00;97571.88;4975297;28;20026;-83
2023/01/25 09:11:39;;;;;;;31.63;18.10;;;;;;;-0.17;100.00;97573.19;4983329;28;20459;-83
2023/01/25 09:14:16;;;;;;;35.37;19.00;;;;;;;-0.32;100.00;97574.63;4959874;28;20041;-83
2023/01/25 09:16:42;;;;;;;30.90;17.80;;;;;;;-0.25;100.00;97578.66;4975924;28;20505;-83
2023/01/25 09:19:08;;;;;;;34.40;19.20;;;;;;;-0.12;100.00;97568.69;4974717;28;20466;-83
2023/01/25 09:21:35;;;;;;;36.00;19.60;;;;;;;-0.22;100.00;97574.28;4964150;28;20809;-82
2023/01/25 09:24:02;;;;;;;38.17;20.70;;;;;;;-0.13;100.00;97566.19;4980121;28;21640;-84
2023/01/25 09:26:28;;;;;;;43.97;21.63;;;;;;;-0.05;100.00;97566.69;4959365;28;20457;-83
2023/01/25 09:29:06;;;;;;;50.37;25.43;;;;;;;-0.03;100.00;97562.31;4987560;28;20481;-83
2023/01/25 09:31:42;;;;;;;53.20;26.80;;;;;;;-0.03;100.00;97563.16;4975493;28;20477;-83
2023/01/25 09:34:15;;;;;;;48.60;26.83;;;;;;;-0.11;100.00;97564.34;4970538;28;20519;-84
2023/01/25 09:36:41;;;;;;;38.00;22.57;;;;;;;-0.17;100.00;97551.66;4991914;28;20457;-83
2023/01/25 09:39:11;;;;;;;43.70;22.63;;;;;;;-0.33;100.00;97552.28;4982321;28;20991;-83
2023/01/25 09:42:10;;;;;;;47.03;26.47;;;;;;;-0.17;100.00;97559.41;4990707;28;20477;-83
2023/01/25 09:44:42;;;;;;;45.57;23.73;;;;;;;-0.23;100.00;97560.53;4959248;28;20469;-83
2023/01/25 09:47:31;;;;;;;55.00;27.83;;;;;;;-0.20;100.00;97564.72;4996329;28;21078;-83
2023/01/25 09:50:15;;;;;;;39.90;20.67;;;;;;;-0.22;100.00;97558.78;4994503;28;20457;-83
2023/01/25 09:53:00;;;;;;;45.83;23.37;;;;;;;-0.28;100.00;97558.09;4980652;28;20473;-82
2023/01/25 09:55:34;;;;;;;40.27;21.53;;;;;;;-0.31;100.00;97559.97;4990357;28;20983;-83
2023/01/25 09:58:03;;;;;;;40.47;20.57;;;;;;;-0.40;100.00;97561.19;4974094;28;20516;-83
2023/01/25 10:00:51;;;;;;;36.80;20.27;;;;;;;-0.44;100.00;97559.59;4974987;28;20492;-83
2023/01/25 10:03:31;;;;;;;38.07;20.37;;;;;;;-0.42;100.00;97551.81;4984373;28;20544;-83
2023/01/25 10:06:13;;;;;;;37.43;21.47;;;;;;;-0.22;100.00;97561.38;4962856;28;20480;-83
2023/01/25 10:09:17;;;;;;;53.90;24.73;;;;;;;-0.21;100.00;97550.94;4960560;28;20849;-83
2023/01/25 10:12:03;;;;;;;;;;;;;;;-0.16;100.00;97554.22;4989765;28;20465;-84
2023/01/25 10:14:34;;;;;;;43.27;22.93;;;;;;;-0.26;100.00;97553.72;4963670;28;19921;-83
2023/01/25 10:17:13;;;;;;;47.87;24.13;;;;;;;-0.15;100.00;97547.28;4975600;28;20450;-83
2023/01/25 10:20:07;;;;;;;47.93;24.03;;;;;;;-0.11;100.00;97547.09;4978572;28;20473;-83
2023/01/25 10:22:49;;;;;;;46.60;23.70;;;;;;;-0.14;100.00;97543.78;4958459;28;20477;-83
2023/01/25 10:25:52;;;;;;;46.57;23.00;;;;;;;-0.35;100.00;97548.06;4985609;28;20549;-83
2023/01/25 10:28:37;;;;;;;42.03;21.87;;;;;;;-0.37;100.00;97544.69;4964215;28;21167;-83
2023/01/25 10:31:15;;;;;;;44.40;23.00;;;;;;;-0.35;100.00;97543.75;4988624;28;20484;-83
2023/01/25 10:33:46;;;;;;;45.83;24.00;;;;;;;-0.36;100.00;97536.91;4968224;28;20540;-83
2023/01/25 10:36:27;;;;;;;48.73;26.70;;;;;;;-0.29;100.00;97529.75;4961915;28;21047;-83
2023/01/25 10:38:58;;;;;;;49.53;25.33;;;;;;;-0.18;100.00;97532.72;4975855;28;21501;-82
2023/01/25 10:41:43;;;;;;;43.03;22.63;;;;;;;-0.36;100.00;97521.38;4992007;28;20465;-85
2023/01/25 10:44:25;;;;;;;40.50;21.30;;;;;;;-0.35;100.00;97527.41;4986304;28;20453;-82
2023/01/25 10:46:54;;;;;;;46.77;23.63;;;;;;;-0.38;100.00;97525.75;4971427;28;20481;-82
2023/01/25 10:49:41;;;;;;;38.23;21.77;;;;;;;-0.36;100.00;97516.22;4974361;28;20477;-82
2023/01/25 10:52:14;;;;;;;47.57;21.77;;;;;;;-0.19;100.00;97514.72;4989177;28;20825;-81
2023/01/25 10:54:44;;;;;;;42.30;23.35;;;;;;;-0.19;100.00;97517.28;4973188;28;21011;-81
2023/01/25 10:57:25;;;;;;;45.97;22.93;;;;;;;-0.19;100.00;97519.88;4980769;28;20081;-81
2023/01/25 11:00:11;;;;;;;39.07;19.77;;;;;;;-0.13;100.00;97504.13;4993176;28;20461;-82
2023/01/25 11:02:47;;;;;;;36.80;19.83;;;;;;;-0.27;100.00;97507.25;4971471;28;20481;-82
2023/01/25 11:05:26;;;;;;;39.57;19.00;;;;;;;-0.26;100.00;97512.38;4983038;28;21043;-82
2023/01/25 11:07:52;;;;;;;38.53;18.70;;;;;;;-0.46;100.00;97512.31;4992171;28;20457;-82
2023/01/25 11:10:36;;;;;;;41.13;20.10;;;;;;;-0.41;100.00;97502.63;4991315;28;20615;-82
2023/01/25 11:13:27;;;;;;;39.53;21.43;;;;;;;-0.39;100.00;97494.81;4989173;28;20474;-81
2023/01/25 11:16:06;;;;;;;37.97;19.70;;;;;;;-0.44;100.00;97497.56;4969943;28;20972;-81
2023/01/25 11:18:34;;;;;;;39.70;21.60;;;;;;;-0.28;100.00;97493.47;4957784;28;20876;-81
2023/01/25 11:21:13;;;;;;;44.73;23.57;;;;;;;-0.16;100.00;97496.50;4976327;28;20465;-82
2023/01/25 11:23:41;;;;;;;42.90;20.83;;;;;;;-0.14;100.00;97492.09;4986012;28;20481;-83
2023/01/25 11:26:16;;;;;;;37.90;19.23;;;;;;;-0.13;100.00;97484.28;4962362;28;21026;-85
2023/01/25 11:28:43;;;;;;;41.77;21.67;;;;;;;-0.03;100.00;97482.16;4973314;28;20540;-82